Time;durP1;ratioP1;P1;durP2;ratioP2;P2;SDS_P1;SDS_P2;PMS_P1;PMS_P2;Temp;Humidity;BMP_temperature;BMP_pressure;BME280_temperature;BME280_humidity;BME280_pressure;Samples;Min_cycle;Max_cycle;Signal;HPM_P1;HPM_P2
2021/03/28 00:02:09;;;;;;;5.17;3.73;;;7.40;99.90;;;;;;5054045;28;20222;-77
2021/03/28 00:04:46;;;;;;;8.70;4.37;;;7.30;99.90;;;;;;5053836;28;20294;-77
2021/03/28 00:07:14;;;;;;;8.17;3.93;;;7.30;99.90;;;;;;5053031;28;20204;-76
2021/03/28 00:10:00;;;;;;;6.50;4.20;;;7.30;99.90;;;;;;5055587;28;20581;-76
2021/03/28 00:12:31;;;;;;;9.33;4.80;;;7.20;99.90;;;;;;5055140;28;20202;-76
2021/03/28 00:15:04;;;;;;;9.40;4.03;;;7.20;99.90;;;;;;5054508;28;20283;-76
2021/03/28 00:17:34;;;;;;;8.53;4.33;;;7.20;99.90;;;;;;5051036;28;20344;-76
2021/03/28 00:20:13;;;;;;;12.77;4.80;;;7.10;99.90;;;;;;5053201;28;20607;-77
2021/03/28 00:22:46;;;;;;;7.50;4.07;;;7.10;99.90;;;;;;5056470;28;20229;-76
2021/03/28 00:25:20;;;;;;;9.03;4.67;;;7.00;99.90;;;;;;5056114;28;20206;-76
2021/03/28 00:27:50;;;;;;;7.43;4.47;;;6.90;99.90;;;;;;5057768;28;20225;-77
2021/03/28 00:30:28;;;;;;;7.80;4.30;;;6.90;99.90;;;;;;5053894;28;20237;-77
2021/03/28 00:32:59;;;;;;;7.20;4.23;;;6.80;99.90;;;;;;5056350;28;20209;-77
2021/03/28 00:35:32;;;;;;;7.87;3.97;;;6.70;99.90;;;;;;5058183;28;20241;-77
2021/03/28 00:38:10;;;;;;;7.63;4.37;;;6.70;99.90;;;;;;5055122;28;20202;-75
2021/03/28 00:40:38;;;;;;;6.93;4.10;;;6.60;99.90;;;;;;5056074;28;20655;-76
2021/03/28 00:43:15;;;;;;;6.23;4.00;;;6.60;99.90;;;;;;5054301;28;20317;-75
2021/03/28 00:45:57;;;;;;;6.17;4.30;;;6.50;99.90;;;;;;5057368;28;20624;-75
2021/03/28 00:48:27;;;;;;;5.57;4.00;;;6.50;99.90;;;;;;5058693;28;20289;-77
2021/03/28 00:51:07;;;;;;;5.87;3.87;;;6.50;99.90;;;;;;5049139;28;20305;-78
2021/03/28 00:53:44;;;;;;;9.03;4.63;;;6.40;99.90;;;;;;5051831;28;20206;-77
2021/03/28 00:56:15;;;;;;;6.83;4.53;;;6.40;99.90;;;;;;5054934;28;20570;-77
2021/03/28 00:58:47;;;;;;;9.20;4.00;;;6.40;99.90;;;;;;5055940;28;20655;-76
2021/03/28 01:01:27;;;;;;;8.33;3.90;;;6.40;99.90;;;;;;5059335;28;20222;-77
2021/03/28 01:04:36;;;;;;;8.90;4.40;;;6.50;99.90;;;;;;5056731;28;20210;-76
2021/03/28 01:07:14;;;;;;;6.73;4.23;;;6.50;99.90;;;;;;5056924;28;20201;-76
2021/03/28 01:10:15;;;;;;;7.00;4.13;;;6.50;99.90;;;;;;5052440;28;20345;-77
2021/03/28 01:13:19;;;;;;;5.77;4.00;;;6.50;99.90;;;;;;5055444;28;20658;-77
2021/03/28 01:16:21;;;;;;;6.63;4.47;;;6.50;99.90;;;;;;5056019;28;20205;-76
2021/03/28 01:19:04;;;;;;;7.50;4.10;;;6.50;99.90;;;;;;5051896;28;20209;-77
2021/03/28 01:21:42;;;;;;;6.70;4.10;;;6.50;99.90;;;;;;5053123;28;20308;-77
2021/03/28 01:24:20;;;;;;;7.10;4.53;;;6.50;99.90;;;;;;5056169;28;20209;-77
2021/03/28 01:27:13;;;;;;;5.80;4.63;;;6.40;99.90;;;;;;5053811;28;20213;-77
2021/03/28 01:29:43;;;;;;;7.30;4.70;;;6.50;99.90;;;;;;5053507;28;20301;-77
2021/03/28 01:32:17;;;;;;;8.00;4.23;;;6.40;99.90;;;;;;5058948;28;20274;-77
2021/03/28 01:34:48;;;;;;;9.10;5.00;;;6.40;99.90;;;;;;5052266;28;20213;-77
2021/03/28 01:37:21;;;;;;;7.20;4.30;;;6.40;99.90;;;;;;5055714;28;20202;-76
2021/03/28 01:39:52;;;;;;;7.30;4.70;;;6.40;99.90;;;;;;5061454;28;20206;-77
2021/03/28 01:42:35;;;;;;;7.47;4.37;;;6.30;99.90;;;;;;5052554;28;20305;-76
2021/03/28 01:45:10;;;;;;;8.27;5.13;;;6.30;99.90;;;;;;5052486;28;20213;-76
2021/03/28 01:47:48;;;;;;;8.53;4.97;;;6.30;99.90;;;;;;5054636;28;20221;-75
2021/03/28 01:50:28;;;;;;;9.47;4.93;;;6.20;99.90;;;;;;5052103;28;20201;-75
2021/03/28 01:53:07;;;;;;;7.63;5.20;;;6.20;99.90;;;;;;5052399;28;20273;-76
2021/03/28 01:55:43;;;;;;;8.93;5.20;;;6.20;99.90;;;;;;5052578;28;20661;-76
2021/03/28 01:58:20;;;;;;;5.90;4.30;;;6.20;99.90;;;;;;5052569;28;20233;-76
2021/03/28 02:01:06;;;;;;;8.17;4.63;;;6.20;99.90;;;;;;5054752;28;20568;-75
2021/03/28 02:03:43;;;;;;;9.33;5.27;;;6.20;99.90;;;;;;5054681;28;20288;-76
2021/03/28 02:06:32;;;;;;;7.73;5.00;;;6.20;99.90;;;;;;5059043;28;20301;-76
2021/03/28 02:09:03;;;;;;;7.40;4.67;;;6.20;99.90;;;;;;5059985;28;20244;-74
2021/03/28 02:11:44;;;;;;;6.53;4.67;;;6.10;99.90;;;;;;5055005;28;20661;-75
2021/03/28 02:14:31;;;;;;;8.97;5.77;;;6.10;99.90;;;;;;5050090;28;20592;-75
2021/03/28 02:17:01;;;;;;;5.90;4.40;;;6.20;99.90;;;;;;5061931;28;20300;-75
2021/03/28 02:19:30;;;;;;;7.83;4.30;;;6.10;99.90;;;;;;5052440;28;20627;-76
2021/03/28 02:22:03;;;;;;;6.73;4.37;;;6.10;99.90;;;;;;5056563;28;20305;-75
2021/03/28 02:24:44;;;;;;;4.83;3.67;;;6.10;99.90;;;;;;5058754;28;20692;-76
2021/03/28 02:27:16;;;;;;;9.57;4.43;;;6.00;99.90;;;;;;5060437;28;20212;-76
2021/03/28 02:29:51;;;;;;;7.97;4.33;;;6.00;99.90;;;;;;5053940;28;20241;-76
2021/03/28 02:32:35;;;;;;;6.33;3.70;;;5.90;99.90;;;;;;5055150;28;20210;-76
2021/03/28 02:35:10;;;;;;;8.53;4.33;;;6.00;99.90;;;;;;5059684;28;20260;-76
2021/03/28 02:37:49;;;;;;;9.00;3.80;;;5.80;99.90;;;;;;5058854;28;20252;-76
2021/03/28 02:40:23;;;;;;;7.93;4.17;;;5.80;99.90;;;;;;5049421;28;20678;-75
2021/03/28 02:43:11;;;;;;;7.10;3.93;;;5.80;99.90;;;;;;5056424;28;20210;-75
2021/03/28 02:45:43;;;;;;;8.73;4.03;;;5.70;99.90;;;;;;5051668;28;20241;-76
2021/03/28 02:48:39;;;;;;;4.97;3.43;;;5.70;99.90;;;;;;5059449;28;20749;-77
2021/03/28 02:51:42;;;;;;;5.57;3.50;;;5.60;99.90;;;;;;5053733;28;20263;-77
2021/03/28 02:54:59;;;;;;;9.57;3.90;;;5.60;99.90;;;;;;5047795;28;20726;-76
2021/03/28 02:57:47;;;;;;;7.87;3.30;;;5.50;99.90;;;;;;4998902;28;20236;-75
2021/03/28 03:00:32;;;;;;;6.57;3.27;;;5.40;99.90;;;;;;5053465;28;20275;-76
2021/03/28 03:03:16;;;;;;;10.53;4.03;;;5.40;99.90;;;;;;5058345;28;20605;-77
2021/03/28 03:06:12;;;;;;;6.43;3.57;;;5.30;99.90;;;;;;5056179;28;20202;-77
2021/03/28 03:08:43;;;;;;;6.23;3.80;;;5.30;99.90;;;;;;5042435;28;20202;-77
2021/03/28 03:11:34;;;;;;;8.97;4.00;;;5.20;99.90;;;;;;5059489;28;20234;-77
2021/03/28 03:14:14;;;;;;;9.90;4.30;;;5.20;99.90;;;;;;5054435;28;20701;-75
2021/03/28 03:17:10;;;;;;;5.43;3.83;;;5.20;99.90;;;;;;5058192;28;20205;-76
2021/03/28 03:20:03;;;;;;;8.10;4.33;;;5.10;99.90;;;;;;5055847;28;20228;-76
2021/03/28 03:23:00;;;;;;;7.07;3.83;;;5.10;99.90;;;;;;5053467;28;20237;-78
2021/03/28 03:25:56;;;;;;;5.03;3.73;;;5.10;99.90;;;;;;5057922;28;20198;-76
2021/03/28 03:28:50;;;;;;;7.30;4.33;;;5.10;99.90;;;;;;5055447;28;20213;-76
2021/03/28 03:31:48;;;;;;;9.07;4.17;;;5.10;99.90;;;;;;5057365;28;20320;-76
2021/03/28 03:34:31;;;;;;;7.60;3.97;;;5.10;99.90;;;;;;5057370;28;20244;-75
2021/03/28 03:37:32;;;;;;;7.50;4.20;;;5.00;99.90;;;;;;5052750;28;20652;-76
2021/03/28 03:40:26;;;;;;;6.43;4.13;;;5.00;99.90;;;;;;5048179;28;20288;-76
2021/03/28 03:43:46;;;;;;;7.57;4.30;;;4.90;99.90;;;;;;5052631;28;20305;-76
2021/03/28 03:46:28;;;;;;;6.00;4.40;;;4.90;99.90;;;;;;5054349;28;20213;-76
2021/03/28 03:49:17;;;;;;;7.27;4.03;;;4.80;99.90;;;;;;5058027;28;20216;-76
2021/03/28 03:52:07;;;;;;;6.57;4.67;;;4.80;99.90;;;;;;5052187;28;20233;-76
2021/03/28 03:54:56;;;;;;;7.33;4.60;;;4.70;99.90;;;;;;5050825;28;20216;-76
2021/03/28 03:57:41;;;;;;;7.60;4.63;;;4.70;99.90;;;;;;5054066;28;20300;-75
2021/03/28 04:00:17;;;;;;;9.00;4.50;;;4.70;99.90;;;;;;5061069;28;20298;-77
2021/03/28 04:02:53;;;;;;;7.67;4.43;;;4.70;99.90;;;;;;5057394;28;20235;-74
2021/03/28 04:05:52;;;;;;;7.67;5.17;;;4.70;99.90;;;;;;5055777;28;20209;-74
2021/03/28 04:08:49;;;;;;;7.70;4.90;;;4.60;99.90;;;;;;5052291;28;20194;-75
2021/03/28 04:11:42;;;;;;;9.00;5.20;;;4.70;99.90;;;;;;5058854;28;20210;-76
2021/03/28 04:14:21;;;;;;;9.17;5.03;;;4.60;99.90;;;;;;5054941;28;20259;-76
2021/03/28 04:17:01;;;;;;;8.50;4.80;;;4.70;99.90;;;;;;5054697;28;20209;-76
2021/03/28 04:19:47;;;;;;;8.93;5.23;;;4.60;99.90;;;;;;5058769;28;20221;-76
2021/03/28 04:22:41;;;;;;;6.90;4.63;;;4.60;99.90;;;;;;5053320;28;20221;-76
2021/03/28 04:25:43;;;;;;;8.27;5.13;;;4.60;99.90;;;;;;5053766;28;20555;-76
2021/03/28 04:28:37;;;;;;;9.27;5.33;;;4.60;99.90;;;;;;5053655;28;20247;-77
2021/03/28 04:31:26;;;;;;;8.10;4.53;;;4.60;99.90;;;;;;5051172;28;20198;-76
2021/03/28 04:34:00;;;;;;;9.00;4.97;;;4.60;99.90;;;;;;5054625;28;20297;-75
2021/03/28 04:36:36;;;;;;;7.27;4.93;;;4.60;99.90;;;;;;5055601;28;20674;-75
2021/03/28 04:39:17;;;;;;;11.20;4.50;;;4.60;99.90;;;;;;5061388;28;20204;-76
2021/03/28 04:42:29;;;;;;;7.30;4.77;;;4.60;99.90;;;;;;5054558;28;20238;-76
2021/03/28 04:45:40;;;;;;;8.87;4.50;;;4.70;99.90;;;;;;5058258;28;20292;-75
2021/03/28 04:48:39;;;;;;;7.80;5.17;;;4.70;99.90;;;;;;5060757;28;20229;-75
2021/03/28 04:52:03;;;;;;;7.37;5.00;;;4.70;99.90;;;;;;5048856;28;20198;-75
2021/03/28 04:55:02;;;;;;;6.97;4.77;;;4.80;99.90;;;;;;5059000;28;20233;-76
2021/03/28 04:57:55;;;;;;;6.83;4.53;;;4.70;99.90;;;;;;5049199;28;20615;-76
2021/03/28 05:00:44;;;;;;;7.73;5.13;;;4.80;99.90;;;;;;5051472;28;20252;-75
2021/03/28 05:03:45;;;;;;;6.90;5.00;;;4.80;99.90;;;;;;5052478;28;20214;-76
2021/03/28 05:06:26;;;;;;;8.03;4.63;;;4.80;99.90;;;;;;5055777;28;20284;-75
2021/03/28 05:09:05;;;;;;;8.70;5.13;;;4.80;99.90;;;;;;5056249;28;20295;-75
2021/03/28 05:12:16;;;;;;;7.67;4.90;;;4.90;99.90;;;;;;5060901;28;20212;-75
2021/03/28 05:15:21;;;;;;;8.57;5.17;;;5.00;99.90;;;;;;4974969;28;20707;-75
2021/03/28 05:18:22;;;;;;;8.63;5.60;;;5.00;99.90;;;;;;5056659;28;20199;-77
2021/03/28 05:21:30;;;;;;;7.60;4.87;;;5.10;99.90;;;;;;5054118;28;20210;-77
2021/03/28 05:24:29;;;;;;;6.60;5.27;;;5.10;99.90;;;;;;5054182;28;20284;-76
2021/03/28 05:27:44;;;;;;;7.03;5.00;;;5.10;99.90;;;;;;5054893;28;20232;-75
2021/03/28 05:30:46;;;;;;;8.77;4.73;;;5.20;99.90;;;;;;5051689;28;20213;-76
2021/03/28 05:33:48;;;;;;;6.47;4.80;;;5.20;99.90;;;;;;5051219;28;20204;-76
2021/03/28 05:36:39;;;;;;;8.17;4.30;;;5.20;99.90;;;;;;5023071;28;20210;-76
2021/03/28 05:39:36;;;;;;;9.53;5.50;;;5.30;99.90;;;;;;5056055;28;20285;-75
2021/03/28 05:42:30;;;;;;;5.17;4.30;;;5.30;99.90;;;;;;5054574;28;20214;-76
2021/03/28 05:45:30;;;;;;;7.60;4.73;;;5.40;99.90;;;;;;5037100;28;20202;-76
2021/03/28 05:48:36;;;;;;;9.83;4.73;;;5.40;99.90;;;;;;5053799;28;20206;-76
2021/03/28 05:51:15;;;;;;;7.07;4.73;;;5.40;99.90;;;;;;5053137;28;20213;-76
2021/03/28 05:54:29;;;;;;;7.83;5.30;;;5.50;99.90;;;;;;5056590;28;20297;-76
2021/03/28 05:57:50;;;;;;;8.20;5.03;;;5.50;99.90;;;;;;5042112;28;20297;-76
2021/03/28 06:00:38;;;;;;;9.97;5.03;;;5.60;99.90;;;;;;5056281;28;20230;-75
2021/03/28 06:03:39;;;;;;;6.90;4.23;;;5.60;99.90;;;;;;5054204;28;20214;-75
2021/03/28 06:06:38;;;;;;;10.57;4.97;;;5.70;99.90;;;;;;5057097;28;20261;-76
2021/03/28 06:09:29;;;;;;;6.17;4.67;;;5.70;99.90;;;;;;5058557;28;20237;-76
2021/03/28 06:12:31;;;;;;;9.30;5.23;;;5.80;99.90;;;;;;5059637;28;20271;-75
2021/03/28 06:15:36;;;;;;;8.73;4.70;;;5.80;99.90;;;;;;5058652;28;20315;-76
2021/03/28 06:18:36;;;;;;;7.80;4.60;;;5.80;99.90;;;;;;5056742;28;20194;-76
2021/03/28 06:21:22;;;;;;;8.30;4.87;;;5.70;99.90;;;;;;5060176;28;20198;-75
2021/03/28 06:24:29;;;;;;;6.17;4.40;;;5.70;99.90;;;;;;5056243;28;20198;-75
2021/03/28 06:28:00;;;;;;;6.77;4.67;;;5.70;99.90;;;;;;5031698;28;20320;-75
2021/03/28 06:31:00;;;;;;;5.33;4.10;;;5.60;99.90;;;;;;5056619;28;20299;-70
2021/03/28 06:34:10;;;;;;;8.93;4.43;;;5.60;99.90;;;;;;5054015;28;20193;-71
2021/03/28 06:37:12;;;;;;;6.67;5.00;;;5.60;99.90;;;;;;5054557;28;20200;-72
2021/03/28 06:40:09;;;;;;;8.57;4.07;;;5.60;99.90;;;;;;5036074;28;20248;-71
2021/03/28 06:43:07;;;;;;;9.17;4.63;;;5.60;99.90;;;;;;5051757;28;20304;-71
2021/03/28 06:45:45;;;;;;;6.83;5.00;;;5.60;99.90;;;;;;5052074;28;20202;-71
2021/03/28 06:48:47;;;;;;;6.83;4.50;;;5.60;99.90;;;;;;5060289;28;20288;-72
2021/03/28 06:51:51;;;;;;;7.43;4.50;;;5.60;99.90;;;;;;5054825;28;20201;-72
2021/03/28 06:55:08;;;;;;;7.70;4.63;;;5.50;99.90;;;;;;5053906;28;20197;-71
2021/03/28 06:58:04;;;;;;;7.30;4.87;;;5.50;99.90;;;;;;5060954;28;20208;-71
2021/03/28 07:01:01;;;;;;;6.67;4.40;;;5.50;99.90;;;;;;5052782;28;20666;-72
2021/03/28 07:04:00;;;;;;;11.77;5.33;;;5.50;99.90;;;;;;5053364;28;20697;-73
2021/03/28 07:06:35;;;;;;;6.30;4.40;;;5.60;99.90;;;;;;5054392;28;20280;-77
2021/03/28 07:09:28;;;;;;;10.93;5.20;;;5.60;99.90;;;;;;5055283;28;20582;-75
2021/03/28 07:12:06;;;;;;;7.83;5.20;;;5.70;99.90;;;;;;5047031;28;20294;-73
2021/03/28 07:15:14;;;;;;;9.27;5.10;;;5.80;99.90;;;;;;5054238;28;20232;-74
2021/03/28 07:18:32;;;;;;;7.87;4.53;;;5.90;99.90;;;;;;5041563;28;20211;-74
2021/03/28 07:21:27;;;;;;;6.73;5.00;;;6.00;99.90;;;;;;5035617;28;20207;-74
2021/03/28 07:24:44;;;;;;;10.17;5.43;;;6.20;99.90;;;;;;5018632;28;20226;-74
2021/03/28 07:27:39;;;;;;;7.90;4.53;;;6.40;99.90;;;;;;5052356;28;20201;-74
2021/03/28 07:30:31;;;;;;;9.40;4.67;;;6.60;99.90;;;;;;5056312;28;20290;-75
2021/03/28 07:33:24;;;;;;;6.57;4.80;;;6.80;99.90;;;;;;5054502;28;20652;-74
2021/03/28 07:36:21;;;;;;;7.13;4.90;;;7.00;99.90;;;;;;5059919;28;20666;-73
2021/03/28 07:39:26;;;;;;;9.33;4.80;;;7.20;99.90;;;;;;5050827;28;20285;-72
2021/03/28 07:42:21;;;;;;;9.67;5.00;;;7.50;99.90;;;;;;5052218;28;20756;-74
2021/03/28 07:45:25;;;;;;;6.53;4.53;;;7.60;99.90;;;;;;5049001;28;20209;-73
2021/03/28 07:48:26;;;;;;;6.60;4.33;;;7.80;99.90;;;;;;5053581;28;20202;-73
2021/03/28 07:51:08;;;;;;;7.80;4.17;;;8.00;99.90;;;;;;5053852;28;20292;-73
2021/03/28 07:54:16;;;;;;;6.10;4.90;;;8.10;99.90;;;;;;5051633;28;20207;-73
2021/03/28 07:57:25;;;;;;;6.17;4.30;;;8.40;99.90;;;;;;5047084;28;20202;-72
2021/03/28 08:00:03;;;;;;;7.97;4.67;;;8.50;99.90;;;;;;5055446;28;20663;-74
2021/03/28 08:03:00;;;;;;;8.93;5.00;;;8.50;99.90;;;;;;5052849;28;20305;-74
2021/03/28 08:05:52;;;;;;;5.83;4.60;;;8.50;99.90;;;;;;5034530;28;20220;-76
2021/03/28 08:08:42;;;;;;;8.80;4.83;;;8.40;99.90;;;;;;5065021;28;20206;-77
2021/03/28 08:11:34;;;;;;;8.47;4.90;;;8.40;99.90;;;;;;5066867;28;20721;-75
2021/03/28 08:14:27;;;;;;;7.53;4.40;;;8.40;99.90;;;;;;5055226;28;20280;-76
2021/03/28 08:17:03;;;;;;;9.27;5.03;;;8.50;99.90;;;;;;5059710;28;20210;-76
2021/03/28 08:19:57;;;;;;;6.37;4.93;;;8.50;99.90;;;;;;5058127;28;20201;-79
2021/03/28 08:22:36;;;;;;;5.97;4.83;;;8.60;99.90;;;;;;5058044;28;20229;-77
2021/03/28 08:25:27;;;;;;;6.43;5.43;;;8.40;99.90;;;;;;5057942;28;20197;-75
2021/03/28 08:28:26;;;;;;;9.77;5.40;;;8.40;99.90;;;;;;5058604;28;20731;-74
2021/03/28 08:31:06;;;;;;;9.00;5.13;;;8.40;99.90;;;;;;5056467;28;20260;-77
2021/03/28 08:33:59;;;;;;;9.00;4.77;;;8.60;99.90;;;;;;5055281;28;20210;-75
2021/03/28 08:36:51;;;;;;;7.80;4.60;;;8.70;99.90;;;;;;5052223;28;20229;-75
2021/03/28 08:39:29;;;;;;;6.73;4.43;;;8.90;99.90;;;;;;5071863;28;20198;-75
2021/03/28 08:42:17;;;;;;;7.17;4.87;;;9.10;99.90;;;;;;5056919;28;20300;-72
2021/03/28 08:45:22;;;;;;;5.77;4.40;;;9.20;99.90;;;;;;5054017;28;20229;-75
2021/03/28 08:48:23;;;;;;;6.93;5.03;;;9.20;99.90;;;;;;5048033;28;20326;-79
2021/03/28 08:51:08;;;;;;;5.40;4.70;;;9.10;99.90;;;;;;5034381;28;20215;-76
2021/03/28 08:54:03;;;;;;;7.73;4.90;;;9.00;99.90;;;;;;5061613;28;20222;-79
2021/03/28 08:56:50;;;;;;;5.93;4.60;;;8.90;99.90;;;;;;5044025;28;20202;-77
2021/03/28 08:59:25;;;;;;;6.67;4.83;;;9.10;99.90;;;;;;5054107;28;20652;-77
2021/03/28 09:02:00;;;;;;;9.60;4.70;;;9.20;99.90;;;;;;5060759;28;20264;-78
2021/03/28 09:04:47;;;;;;;5.73;4.37;;;9.30;99.90;;;;;;5053125;28;20208;-74
2021/03/28 09:07:27;;;;;;;8.20;5.17;;;9.40;99.90;;;;;;5060102;28;20202;-77
2021/03/28 09:10:23;;;;;;;8.60;4.80;;;9.30;99.60;;;;;;5053620;28;20245;-75
2021/03/28 09:13:13;;;;;;;8.63;5.20;;;9.20;99.80;;;;;;5062050;28;20236;-73
2021/03/28 09:15:55;;;;;;;10.13;5.10;;;9.10;99.90;;;;;;5049110;28;20202;-75
2021/03/28 09:18:45;;;;;;;6.67;4.50;;;9.10;99.90;;;;;;5047659;28;20283;-74
2021/03/28 09:21:28;;;;;;;7.03;4.63;;;8.90;99.60;;;;;;5053651;28;20241;-77
2021/03/28 09:24:14;;;;;;;8.07;5.00;;;8.80;99.90;;;;;;5044043;28;20206;-76
2021/03/28 09:26:48;;;;;;;6.93;5.13;;;8.60;99.90;;;;;;5048583;28;20697;-76
2021/03/28 09:29:40;;;;;;;6.17;4.87;;;8.60;99.90;;;;;;5048397;28;20733;-72
2021/03/28 09:32:42;;;;;;;13.47;5.87;;;8.60;99.90;;;;;;5044348;28;20226;-72
2021/03/28 09:35:39;;;;;;;8.03;5.50;;;8.60;99.90;;;;;;5042033;28;20198;-73
2021/03/28 09:38:35;;;;;;;7.30;5.13;;;8.70;99.90;;;;;;5044991;28;20206;-72
2021/03/28 09:41:17;;;;;;;11.63;5.27;;;8.80;99.90;;;;;;5041721;28;20698;-72
2021/03/28 09:43:53;;;;;;;10.13;5.37;;;8.90;99.90;;;;;;5050445;28;20214;-76
2021/03/28 09:46:36;;;;;;;10.47;5.73;;;9.00;99.90;;;;;;5053964;28;20217;-75
2021/03/28 09:49:27;;;;;;;10.90;5.80;;;9.20;99.90;;;;;;5052179;28;20905;-75
2021/03/28 09:52:30;;;;;;;7.87;5.43;;;9.20;99.90;;;;;;5053855;28;20290;-74
2021/03/28 09:55:35;;;;;;;10.50;5.33;;;9.10;99.90;;;;;;5052386;28;20241;-75
2021/03/28 09:58:37;;;;;;;6.70;5.43;;;9.30;99.90;;;;;;5053092;28;20629;-74
2021/03/28 10:01:39;;;;;;;6.47;4.97;;;9.80;99.90;;;;;;5063564;28;20201;-76
2021/03/28 10:04:28;;;;;;;10.70;5.53;;;10.00;99.90;;;;;;5054825;28;20213;-75
2021/03/28 10:06:59;;;;;;;8.00;5.07;;;10.60;99.90;;;;;;5054951;28;20293;-75
2021/03/28 10:09:43;;;;;;;8.70;5.63;;;12.30;99.90;;;;;;5055084;28;20242;-77
2021/03/28 10:12:19;;;;;;;8.00;6.20;;;12.80;88.80;;;;;;5056128;28;20245;-75
2021/03/28 10:14:57;;;;;;;7.43;5.10;;;12.70;90.40;;;;;;5056786;28;20225;-76
2021/03/28 10:17:45;;;;;;;8.90;5.37;;;12.60;83.20;;;;;;5055574;28;20214;-75
2021/03/28 10:20:36;;;;;;;8.00;4.93;;;12.40;84.00;;;;;;5056248;28;20218;-76
2021/03/28 10:23:22;;;;;;;6.87;5.40;;;12.30;82.60;;;;;;5051622;28;20313;-74
2021/03/28 10:26:04;;;;;;;9.47;5.33;;;12.20;81.10;;;;;;5054971;28;20640;-75
2021/03/28 10:29:02;;;;;;;11.60;6.03;;;12.00;81.20;;;;;;5049658;28;20542;-75
2021/03/28 10:31:52;;;;;;;8.43;4.77;;;11.80;85.50;;;;;;5047887;28;20204;-75
2021/03/28 10:34:48;;;;;;;5.83;4.63;;;12.00;82.20;;;;;;5056606;28;20216;-75
2021/03/28 10:37:38;;;;;;;8.10;4.97;;;12.70;87.70;;;;;;5057482;28;20210;-75
2021/03/28 10:40:26;;;;;;;8.27;5.17;;;13.50;78.40;;;;;;5056691;28;20209;-73
2021/03/28 10:43:02;;;;;;;7.83;4.70;;;14.10;75.20;;;;;;5057608;28;20704;-75
2021/03/28 10:45:52;;;;;;;8.63;5.43;;;14.60;66.00;;;;;;5048779;28;20289;-76
2021/03/28 10:48:54;;;;;;;8.63;5.47;;;15.00;66.60;;;;;;5058331;28;20572;-75
2021/03/28 10:51:49;;;;;;;7.27;4.90;;;15.20;63.50;;;;;;5057887;28;20663;-75
2021/03/28 10:54:57;;;;;;;7.10;4.33;;;15.20;59.70;;;;;;5051581;28;20233;-75
2021/03/28 10:58:01;;;;;;;7.10;4.53;;;15.30;58.60;;;;;;5034182;28;20714;-75
2021/03/28 11:01:16;;;;;;;5.13;4.20;;;15.20;58.00;;;;;;5041046;28;20643;-75
2021/03/28 11:04:22;;;;;;;9.07;4.60;;;15.10;56.70;;;;;;5044613;28;20249;-74
2021/03/28 11:07:13;;;;;;;8.37;5.13;;;15.20;58.50;;;;;;5057449;28;20220;-75
2021/03/28 11:10:10;;;;;;;5.67;4.47;;;15.30;58.60;;;;;;5057532;28;20295;-74
2021/03/28 11:12:50;;;;;;;8.03;4.83;;;15.40;57.30;;;;;;5049879;28;20252;-76
2021/03/28 11:15:38;;;;;;;5.63;4.50;;;15.50;56.70;;;;;;5057624;28;20754;-75
2021/03/28 11:18:30;;;;;;;9.50;4.87;;;15.50;56.00;;;;;;5057660;28;20736;-75
2021/03/28 11:21:01;;;;;;;5.97;3.53;;;15.70;56.10;;;;;;5058067;28;20214;-75
2021/03/28 11:23:47;;;;;;;5.67;4.30;;;15.80;54.70;;;;;;5057775;28;20321;-74
2021/03/28 11:26:52;;;;;;;7.00;3.43;;;15.80;54.20;;;;;;5044892;28;20234;-75
2021/03/28 11:30:04;;;;;;;6.83;3.97;;;16.00;53.60;;;;;;5056888;28;20259;-75
2021/03/28 11:32:54;;;;;;;9.20;4.20;;;16.20;52.60;;;;;;5057335;28;20205;-75
2021/03/28 11:35:26;;;;;;;6.17;3.93;;;16.00;52.50;;;;;;5056005;28;20197;-76
2021/03/28 11:38:15;;;;;;;5.40;3.60;;;15.90;52.80;;;;;;5056090;28;20209;-75
2021/03/28 11:40:42;;;;;;;5.33;3.30;;;16.00;51.80;;;;;;5057308;28;20209;-72
2021/03/28 11:43:33;;;;;;;6.33;3.67;;;15.80;51.30;;;;;;5056231;28;20232;-76
2021/03/28 11:46:20;;;;;;;7.23;4.67;;;15.70;51.50;;;;;;5057041;28;20237;-76
2021/03/28 11:49:04;;;;;;;4.53;3.20;;;15.80;52.00;;;;;;5057428;28;20566;-75
2021/03/28 11:52:02;;;;;;;8.67;3.07;;;15.90;50.80;;;;;;5056469;28;20237;-76
2021/03/28 11:54:30;;;;;;;4.33;2.80;;;16.10;50.60;;;;;;5052904;28;20285;-76
2021/03/28 11:57:13;;;;;;;5.93;2.70;;;16.10;49.10;;;;;;5057804;28;20553;-76
2021/03/28 11:59:43;;;;;;;9.23;3.30;;;16.10;49.40;;;;;;5053922;28;20227;-76
2021/03/28 12:02:28;;;;;;;6.67;3.00;;;15.90;49.60;;;;;;5051938;28;20225;-75
2021/03/28 12:05:32;;;;;;;4.60;2.90;;;15.90;50.80;;;;;;5051606;28;20214;-77
2021/03/28 12:08:10;;;;;;;4.57;2.50;;;16.00;49.50;;;;;;5051366;28;20201;-74
2021/03/28 12:10:38;;;;;;;6.23;3.30;;;16.10;47.80;;;;;;5053251;28;20320;-75
2021/03/28 12:13:30;;;;;;;5.67;3.20;;;15.90;47.00;;;;;;5056131;28;20229;-77
2021/03/28 12:16:03;;;;;;;4.73;2.97;;;15.60;47.60;;;;;;5056372;28;20233;-74
2021/03/28 12:18:54;;;;;;;5.23;2.77;;;15.50;49.00;;;;;;5057032;28;20701;-77
2021/03/28 12:21:52;;;;;;;5.77;3.30;;;15.70;48.50;;;;;;5051378;28;20221;-76
2021/03/28 12:24:26;;;;;;;7.87;3.40;;;15.50;48.30;;;;;;5053946;28;20206;-75
2021/03/28 12:26:59;;;;;;;4.97;3.00;;;15.50;49.00;;;;;;5056347;28;20212;-75
2021/03/28 12:29:39;;;;;;;4.20;2.93;;;15.80;50.10;;;;;;5055126;28;20209;-75
2021/03/28 12:32:48;;;;;;;4.93;3.20;;;16.20;48.80;;;;;;5056721;28;20566;-75
2021/03/28 12:35:23;;;;;;;4.77;2.63;;;16.40;47.40;;;;;;5056986;28;20295;-75
2021/03/28 12:37:51;;;;;;;6.43;3.57;;;16.10;46.70;;;;;;5054045;28;20239;-72
2021/03/28 12:40:34;;;;;;;3.43;2.77;;;16.30;47.60;;;;;;5054598;28;20209;-77
2021/03/28 12:43:05;;;;;;;4.97;3.10;;;16.20;47.10;;;;;;5055718;28;20245;-77
2021/03/28 12:45:41;;;;;;;4.27;3.33;;;16.30;46.80;;;;;;5056938;28;20209;-75
2021/03/28 12:48:34;;;;;;;5.50;3.50;;;16.20;45.80;;;;;;5052640;28;20723;-75
2021/03/28 12:51:00;;;;;;;5.30;3.60;;;16.20;45.80;;;;;;5043788;28;20221;-74
2021/03/28 12:53:32;;;;;;;8.73;4.17;;;15.90;45.60;;;;;;5056181;28;20284;-73
2021/03/28 12:56:01;;;;;;;4.37;3.43;;;15.60;46.00;;;;;;5047974;28;20683;-75
2021/03/28 12:58:41;;;;;;;8.53;3.57;;;15.60;47.60;;;;;;5057670;28;20202;-73
2021/03/28 13:01:25;;;;;;;5.97;3.00;;;15.50;46.70;;;;;;5050921;28;20342;-76
2021/03/28 13:03:53;;;;;;;5.43;3.23;;;15.40;47.50;;;;;;5056279;28;20287;-74
2021/03/28 13:06:32;;;;;;;5.30;3.20;;;15.50;47.70;;;;;;5055820;28;20568;-76
2021/03/28 13:09:00;;;;;;;4.20;3.10;;;15.50;47.10;;;;;;5047002;28;20220;-73
2021/03/28 13:11:41;;;;;;;5.97;3.10;;;15.50;47.30;;;;;;5050513;28;20198;-74
2021/03/28 13:14:34;;;;;;;4.77;2.70;;;15.60;47.20;;;;;;5055706;28;20789;-74
2021/03/28 13:17:04;;;;;;;5.23;3.20;;;15.80;46.70;;;;;;5055659;28;20294;-76
2021/03/28 13:19:34;;;;;;;6.43;3.00;;;15.50;46.00;;;;;;5056360;28;20289;-74
2021/03/28 13:22:04;;;;;;;3.87;2.93;;;15.20;46.50;;;;;;5048574;28;20316;-73
2021/03/28 13:24:31;;;;;;;4.13;3.00;;;14.80;47.00;;;;;;5049712;28;20274;-74
2021/03/28 13:27:12;;;;;;;4.20;3.17;;;14.50;47.30;;;;;;5054807;28;20244;-74
2021/03/28 13:29:50;;;;;;;3.37;2.60;;;14.10;47.70;;;;;;5052088;28;20205;-74
2021/03/28 13:32:22;;;;;;;5.90;2.80;;;13.80;48.20;;;;;;5054463;28;20261;-74
2021/03/28 13:34:56;;;;;;;7.80;3.60;;;13.60;48.60;;;;;;5052940;28;20202;-72
2021/03/28 13:37:52;;;;;;;5.80;2.73;;;13.30;49.20;;;;;;5056627;28;20665;-75
2021/03/28 13:40:24;;;;;;;5.37;2.60;;;13.20;49.40;;;;;;5044307;28;20198;-73
2021/03/28 13:42:55;;;;;;;4.67;2.50;;;13.00;49.70;;;;;;5051010;28;20249;-74
2021/03/28 13:45:33;;;;;;;3.80;2.93;;;12.90;49.90;;;;;;5051504;28;20198;-72
2021/03/28 13:48:23;;;;;;;6.47;2.87;;;12.80;50.00;;;;;;5054537;28;20259;-73
2021/03/28 13:50:53;;;;;;;4.83;2.63;;;12.80;49.50;;;;;;5049459;28;20259;-73
2021/03/28 13:53:39;;;;;;;7.10;2.70;;;12.80;49.60;;;;;;5059077;28;20252;-75
2021/03/28 13:56:45;;;;;;;5.87;3.07;;;12.80;49.60;;;;;;5056040;28;20300;-72
2021/03/28 13:59:20;;;;;;;6.63;3.17;;;12.80;49.20;;;;;;5045369;28;20559;-73
2021/03/28 14:02:27;;;;;;;4.37;2.53;;;12.80;49.10;;;;;;5060372;28;20205;-74
2021/03/28 14:04:58;;;;;;;5.67;2.70;;;12.60;48.80;;;;;;5020093;28;20211;-73
2021/03/28 14:07:36;;;;;;;3.77;2.47;;;12.40;49.30;;;;;;5012045;28;20766;-72
2021/03/28 14:10:22;;;;;;;3.27;2.23;;;12.30;49.50;;;;;;5040974;28;20237;-73
2021/03/28 14:12:54;;;;;;;3.90;2.23;;;12.30;49.90;;;;;;5058725;28;20277;-73
2021/03/28 14:15:38;;;;;;;4.53;2.30;;;12.20;50.30;;;;;;5055970;28;20229;-72
2021/03/28 14:18:17;;;;;;;6.70;2.87;;;12.10;50.40;;;;;;5053436;28;20306;-74
2021/03/28 14:20:48;;;;;;;7.13;3.40;;;12.10;51.00;;;;;;5056076;28;20206;-73
2021/03/28 14:23:22;;;;;;;3.63;2.30;;;12.20;50.90;;;;;;5056148;28;20267;-74
2021/03/28 14:25:52;;;;;;;4.70;2.47;;;12.30;50.60;;;;;;5057745;28;20621;-75
2021/03/28 14:28:43;;;;;;;4.50;3.00;;;12.50;50.50;;;;;;5055629;28;20289;-75
2021/03/28 14:31:33;;;;;;;4.50;2.93;;;12.60;50.10;;;;;;5057192;28;20548;-75
2021/03/28 14:34:36;;;;;;;4.67;2.77;;;12.70;50.50;;;;;;5058200;28;20258;-75
2021/03/28 14:37:39;;;;;;;6.47;2.50;;;12.90;50.60;;;;;;5048401;28;20209;-74
2021/03/28 14:40:44;;;;;;;5.20;2.87;;;13.10;50.50;;;;;;5057502;28;20204;-74